Time;durP1;ratioP1;P1;durP2;ratioP2;P2;SDS_P1;SDS_P2;PMS_P1;PMS_P2;Temp;Humidity;BMP_temperature;BMP_pressure;BME280_temperature;BME280_humidity;BME280_pressure;Samples;Min_cycle;Max_cycle;Signal;HPM_P1;HPM_P2
2023/05/01 00:02:16;;;;;;;13.93;5.68;;;;;;;;;;5009831;28;20386;-68
2023/05/01 00:04:42;;;;;;;18.55;5.40;;;;;;;;;;5020631;22;20058;-68
2023/05/01 00:07:07;;;;;;;10.68;4.30;;;;;;;;;;4996402;28;20022;-68
2023/05/01 00:09:33;;;;;;;14.77;5.50;;;;;;;;;;4996898;28;20022;-69
2023/05/01 00:11:58;;;;;;;10.38;4.53;;;;;;;;;;4999611;28;20018;-67
2023/05/01 00:14:23;;;;;;;26.33;5.35;;;;;;;;;;5006368;28;20125;-69
2023/05/01 00:16:49;;;;;;;30.08;5.63;;;;;;;;;;5008427;28;20080;-68
2023/05/01 00:19:17;;;;;;;12.55;4.70;;;;;;;;;;5004255;28;20018;-69
2023/05/01 00:21:44;;;;;;;11.13;4.63;;;;;;;;;;4988298;28;20041;-68
2023/05/01 00:24:10;;;;;;;13.13;5.00;;;;;;;;;;4992386;28;20026;-68
2023/05/01 00:26:35;;;;;;;13.30;4.82;;;;;;;;;;4996595;28;20041;-66
2023/05/01 00:29:01;;;;;;;21.95;4.75;;;;;;;;;;5001673;28;20018;-67
2023/05/01 00:31:26;;;;;;;12.10;4.78;;;;;;;;;;4998926;28;20105;-68
2023/05/01 00:33:51;;;;;;;19.02;5.07;;;;;;;;;;5007405;28;20040;-68
2023/05/01 00:36:16;;;;;;;31.70;6.13;;;;;;;;;;4997557;28;20015;-69
2023/05/01 00:38:41;;;;;;;13.73;4.60;;;;;;;;;;5008113;28;20029;-68
2023/05/01 00:41:07;;;;;;;10.23;4.25;;;;;;;;;;5011610;28;20041;-69
2023/05/01 00:43:32;;;;;;;14.48;4.45;;;;;;;;;;4993530;28;20159;-70
2023/05/01 00:45:57;;;;;;;15.35;5.45;;;;;;;;;;5011516;28;20034;-66
2023/05/01 00:48:23;;;;;;;14.70;5.13;;;;;;;;;;4998115;28;20026;-68
2023/05/01 00:50:48;;;;;;;10.70;4.03;;;;;;;;;;4992160;28;20492;-68
2023/05/01 00:53:14;;;;;;;11.48;4.50;;;;;;;;;;5008262;28;20025;-66
2023/05/01 00:55:40;;;;;;;11.18;4.82;;;;;;;;;;5001789;28;20171;-69
2023/05/01 00:58:06;;;;;;;17.33;4.45;;;;;;;;;;4992742;28;20562;-68
2023/05/01 01:00:31;;;;;;;12.18;4.75;;;;;;;;;;5001789;28;20105;-68
2023/05/01 01:02:57;;;;;;;8.23;3.67;;;;;;;;;;5007482;28;20019;-66
2023/05/01 01:05:24;;;;;;;13.98;4.68;;;;;;;;;;4991253;28;20026;-69
2023/05/01 01:08:00;;;;;;;12.35;4.35;;;;;;;;;;5007766;28;20096;-68
2023/05/01 01:10:28;;;;;;;12.43;4.35;;;;;;;;;;5003716;28;20037;-68
2023/05/01 01:13:12;;;;;;;12.88;5.45;;;;;;;;;;4997626;28;20032;-69
2023/05/01 01:15:40;;;;;;;16.02;5.05;;;;;;;;;;4996889;28;20052;-67
2023/05/01 01:18:05;;;;;;;14.57;5.05;;;;;;;;;;4999509;28;20449;-68
2023/05/01 01:20:37;;;;;;;11.60;4.13;;;;;;;;;;5010099;28;20544;-68
2023/05/01 01:23:02;;;;;;;21.58;5.28;;;;;;;;;;4991140;28;20624;-68
2023/05/01 01:25:45;;;;;;;9.55;4.40;;;;;;;;;;4993037;28;20037;-69
2023/05/01 01:28:20;;;;;;;9.68;4.68;;;;;;;;;;4996762;28;20048;-66
2023/05/01 01:30:48;;;;;;;10.85;4.10;;;;;;;;;;5004472;28;20030;-67
2023/05/01 01:33:19;;;;;;;12.05;4.38;;;;;;;;;;4991322;28;20026;-67
2023/05/01 01:35:52;;;;;;;12.68;4.40;;;;;;;;;;5010393;28;20050;-68
2023/05/01 01:38:23;;;;;;;14.98;4.88;;;;;;;;;;5011068;28;20177;-68
2023/05/01 01:41:00;;;;;;;8.52;4.18;;;;;;;;;;5003302;28;20014;-69
2023/05/01 01:43:26;;;;;;;11.63;4.25;;;;;;;;;;4991004;28;20038;-69
2023/05/01 01:45:56;;;;;;;16.02;4.90;;;;;;;;;;4991525;28;20412;-68
2023/05/01 01:48:25;;;;;;;13.32;4.85;;;;;;;;;;4995025;28;20555;-68
2023/05/01 01:50:52;;;;;;;8.35;3.85;;;;;;;;;;5002384;28;20432;-67
2023/05/01 01:53:18;;;;;;;16.48;4.95;;;;;;;;;;5006430;28;20026;-67
2023/05/01 01:55:44;;;;;;;8.65;3.90;;;;;;;;;;4990970;28;20539;-68
2023/05/01 01:58:10;;;;;;;10.65;4.22;;;;;;;;;;4998061;28;20460;-68
2023/05/01 02:00:36;;;;;;;11.65;4.13;;;;;;;;;;5003850;28;20040;-69
2023/05/01 02:03:02;;;;;;;12.73;4.50;;;;;;;;;;5010262;28;20623;-68
2023/05/01 02:05:27;;;;;;;11.00;4.65;;;;;;;;;;5010360;28;20013;-65
2023/05/01 02:07:53;;;;;;;11.20;4.28;;;;;;;;;;4997354;28;20030;-69
2023/05/01 02:10:19;;;;;;;13.70;4.90;;;;;;;;;;4991501;28;20084;-70
2023/05/01 02:12:45;;;;;;;12.55;4.00;;;;;;;;;;4990654;28;20030;-67
2023/05/01 02:15:12;;;;;;;10.15;4.38;;;;;;;;;;4990884;28;20023;-69
2023/05/01 02:17:39;;;;;;;10.38;4.63;;;;;;;;;;4991210;28;20115;-68
2023/05/01 02:20:06;;;;;;;12.63;4.50;;;;;;;;;;4986250;28;20050;-69
2023/05/01 02:22:32;;;;;;;11.68;3.97;;;;;;;;;;5001015;28;20480;-68
2023/05/01 02:24:59;;;;;;;13.13;4.53;;;;;;;;;;4991240;28;20018;-68
2023/05/01 02:27:33;;;;;;;9.88;4.10;;;;;;;;;;4998909;28;20022;-69
2023/05/01 02:29:58;;;;;;;8.80;4.40;;;;;;;;;;4999819;28;20160;-67
2023/05/01 02:32:25;;;;;;;11.57;4.45;;;;;;;;;;4996079;28;20022;-68
2023/05/01 02:34:50;;;;;;;14.68;4.68;;;;;;;;;;4998396;28;20476;-69
2023/05/01 02:37:15;;;;;;;15.48;4.43;;;;;;;;;;5004180;28;20029;-69
2023/05/01 02:39:41;;;;;;;14.13;5.07;;;;;;;;;;4991068;28;20504;-65
2023/05/01 02:42:08;;;;;;;21.88;6.03;;;;;;;;;;4994852;28;20026;-68
2023/05/01 02:44:41;;;;;;;10.05;4.55;;;;;;;;;;5009839;28;20041;-68
2023/05/01 02:47:08;;;;;;;11.63;3.90;;;;;;;;;;4991120;28;20565;-68
2023/05/01 02:49:33;;;;;;;11.30;4.57;;;;;;;;;;4994740;28;20056;-70
2023/05/01 02:51:59;;;;;;;10.07;4.28;;;;;;;;;;4990476;28;20484;-67
2023/05/01 02:54:25;;;;;;;11.45;4.85;;;;;;;;;;5001588;28;20486;-69
2023/05/01 02:56:51;;;;;;;11.25;5.07;;;;;;;;;;4989925;28;20479;-68
2023/05/01 02:59:16;;;;;;;16.88;5.43;;;;;;;;;;4996216;28;20420;-68
2023/05/01 03:01:41;;;;;;;10.65;4.32;;;;;;;;;;5008862;28;20447;-66
2023/05/01 03:04:07;;;;;;;11.00;4.57;;;;;;;;;;5008996;28;20029;-69
2023/05/01 03:06:32;;;;;;;18.55;5.68;;;;;;;;;;4996507;28;20491;-68
2023/05/01 03:08:57;;;;;;;17.40;5.68;;;;;;;;;;4988604;28;20109;-69
2023/05/01 03:11:23;;;;;;;14.10;5.72;;;;;;;;;;4992643;28;20029;-70
2023/05/01 03:13:48;;;;;;;11.73;5.75;;;;;;;;;;5001770;28;20032;-70
2023/05/01 03:16:13;;;;;;;16.00;5.82;;;;;;;;;;4991418;28;20022;-67
2023/05/01 03:18:38;;;;;;;13.43;5.25;;;;;;;;;;5002132;28;20025;-66
2023/05/01 03:21:04;;;;;;;17.52;6.40;;;;;;;;;;4990781;28;20094;-69
2023/05/01 03:23:29;;;;;;;16.02;5.80;;;;;;;;;;4988954;28;20625;-69
2023/05/01 03:25:54;;;;;;;13.70;5.68;;;;;;;;;;4989579;28;20487;-69
2023/05/01 03:28:22;;;;;;;11.68;5.57;;;;;;;;;;5001077;28;20060;-67
2023/05/01 03:30:48;;;;;;;14.55;6.05;;;;;;;;;;5003097;28;20081;-65
2023/05/01 03:33:14;;;;;;;11.10;5.75;;;;;;;;;;5001472;28;20034;-69
2023/05/01 03:35:39;;;;;;;11.60;4.97;;;;;;;;;;5009320;28;20699;-68
2023/05/01 03:38:05;;;;;;;8.73;4.43;;;;;;;;;;4997248;28;20437;-69
2023/05/01 03:40:30;;;;;;;23.90;5.82;;;;;;;;;;5002514;28;20022;-66
2023/05/01 03:42:55;;;;;;;12.98;6.40;;;;;;;;;;4989058;28;20554;-68
2023/05/01 03:45:20;;;;;;;17.63;5.78;;;;;;;;;;4989208;28;20081;-68
2023/05/01 03:47:45;;;;;;;16.67;5.97;;;;;;;;;;4989410;28;20022;-69
2023/05/01 03:50:11;;;;;;;15.23;5.47;;;;;;;;;;4993514;28;20452;-69
2023/05/01 03:52:37;;;;;;;18.40;5.70;;;;;;;;;;4996974;28;20060;-67
2023/05/01 03:55:02;;;;;;;15.07;6.13;;;;;;;;;;5007238;28;20154;-68
2023/05/01 03:57:27;;;;;;;14.95;6.40;;;;;;;;;;4992474;28;20034;-67
2023/05/01 03:59:53;;;;;;;18.08;6.20;;;;;;;;;;5000979;28;20077;-68
2023/05/01 04:02:18;;;;;;;19.63;6.05;;;;;;;;;;5008948;28;20022;-69
2023/05/01 04:04:43;;;;;;;14.07;5.90;;;;;;;;;;5008310;28;20109;-67
2023/05/01 04:07:09;;;;;;;16.35;6.47;;;;;;;;;;5008685;28;20061;-67
2023/05/01 04:09:34;;;;;;;13.88;5.78;;;;;;;;;;4995204;28;20417;-70
2023/05/01 04:12:01;;;;;;;15.90;6.03;;;;;;;;;;4996633;28;20334;-68
2023/05/01 04:14:26;;;;;;;15.98;6.55;;;;;;;;;;5006554;28;20029;-67
2023/05/01 04:16:52;;;;;;;13.98;6.13;;;;;;;;;;5008645;28;20415;-68
2023/05/01 04:19:17;;;;;;;14.13;6.43;;;;;;;;;;5004915;28;20046;-69
2023/05/01 04:21:42;;;;;;;21.58;7.30;;;;;;;;;;4988545;28;20034;-68
2023/05/01 04:24:07;;;;;;;14.57;6.38;;;;;;;;;;4995226;28;20040;-68
2023/05/01 04:26:33;;;;;;;21.23;7.63;;;;;;;;;;5008712;28;20491;-69
2023/05/01 04:28:59;;;;;;;15.23;7.05;;;;;;;;;;5006593;28;20034;-66
2023/05/01 04:31:24;;;;;;;14.23;6.32;;;;;;;;;;5001115;28;20102;-67
2023/05/01 04:33:50;;;;;;;12.65;6.25;;;;;;;;;;5015402;28;20048;-69
2023/05/01 04:36:15;;;;;;;18.73;7.05;;;;;;;;;;5012497;28;20018;-66
2023/05/01 04:38:41;;;;;;;25.85;8.48;;;;;;;;;;4993134;28;20025;-69
2023/05/01 04:41:06;;;;;;;14.68;7.60;;;;;;;;;;5000264;28;20101;-68
2023/05/01 04:43:32;;;;;;;18.10;7.70;;;;;;;;;;4994728;28;20444;-69
2023/05/01 04:45:57;;;;;;;15.93;7.63;;;;;;;;;;4989115;28;20022;-66
2023/05/01 04:48:22;;;;;;;20.48;9.48;;;;;;;;;;4988581;28;20074;-69
2023/05/01 04:50:48;;;;;;;15.68;7.97;;;;;;;;;;4988487;28;20105;-69
2023/05/01 04:53:13;;;;;;;18.42;9.23;;;;;;;;;;4992293;28;20503;-68
2023/05/01 04:55:38;;;;;;;19.15;9.38;;;;;;;;;;5006641;28;20049;-69
2023/05/01 04:58:04;;;;;;;21.38;9.10;;;;;;;;;;4991844;28;20093;-65
2023/05/01 05:00:29;;;;;;;25.20;10.60;;;;;;;;;;4998772;28;20572;-68
2023/05/01 05:02:54;;;;;;;22.05;8.38;;;;;;;;;;4995018;28;20030;-66
2023/05/01 05:05:20;;;;;;;21.58;8.02;;;;;;;;;;4997939;28;20064;-69
2023/05/01 05:07:45;;;;;;;16.92;8.40;;;;;;;;;;4991802;28;20029;-67
2023/05/01 05:10:10;;;;;;;19.00;9.05;;;;;;;;;;4999597;28;20018;-69
2023/05/01 05:12:35;;;;;;;17.83;9.15;;;;;;;;;;4994711;28;20103;-66
2023/05/01 05:15:01;;;;;;;17.30;8.38;;;;;;;;;;4997863;28;20018;-70
2023/05/01 05:17:26;;;;;;;23.00;8.65;;;;;;;;;;4991365;28;20057;-68
2023/05/01 05:19:51;;;;;;;19.02;9.07;;;;;;;;;;5007993;28;20117;-69
2023/05/01 05:22:16;;;;;;;21.33;9.38;;;;;;;;;;5007360;28;20089;-68
2023/05/01 05:24:42;;;;;;;17.85;8.43;;;;;;;;;;4991812;28;20023;-69
2023/05/01 05:27:07;;;;;;;22.73;9.70;;;;;;;;;;5005782;28;20092;-67
2023/05/01 05:29:33;;;;;;;16.25;8.35;;;;;;;;;;4991516;28;20419;-68
2023/05/01 05:31:59;;;;;;;18.90;9.52;;;;;;;;;;4993883;28;20498;-69
2023/05/01 05:34:24;;;;;;;21.45;9.18;;;;;;;;;;5011012;28;20034;-69
2023/05/01 05:36:49;;;;;;;19.95;8.70;;;;;;;;;;5011493;28;20396;-69
2023/05/01 05:39:14;;;;;;;18.65;8.95;;;;;;;;;;5011096;28;20100;-67
2023/05/01 05:41:40;;;;;;;22.65;8.73;;;;;;;;;;5009707;28;20101;-70
2023/05/01 05:44:05;;;;;;;15.20;8.13;;;;;;;;;;4999263;28;20062;-67
2023/05/01 05:46:30;;;;;;;16.15;7.57;;;;;;;;;;5009505;28;20113;-69
2023/05/01 05:48:55;;;;;;;18.52;7.57;;;;;;;;;;4991277;28;20396;-70
2023/05/01 05:51:21;;;;;;;23.65;9.10;;;;;;;;;;5006519;28;20029;-66
2023/05/01 05:53:46;;;;;;;16.60;7.72;;;;;;;;;;5010550;28;20034;-70
2023/05/01 05:56:11;;;;;;;19.52;8.38;;;;;;;;;;5006664;28;20026;-67
2023/05/01 05:58:36;;;;;;;22.10;7.47;;;;;;;;;;4992297;28;20524;-69
2023/05/01 06:01:02;;;;;;;19.23;8.95;;;;;;;;;;5006006;28;20014;-68
2023/05/01 06:03:27;;;;;;;17.40;8.20;;;;;;;;;;5019293;23;20025;-63
2023/05/01 06:05:52;;;;;;;15.13;7.68;;;;;;;;;;5020280;28;20029;-62
2023/05/01 06:08:18;;;;;;;21.30;8.43;;;;;;;;;;5027757;28;20017;-62
2023/05/01 06:10:43;;;;;;;23.25;8.20;;;;;;;;;;5027046;28;20092;-62
2023/05/01 06:13:12;;;;;;;19.35;8.00;;;;;;;;;;5032161;28;20101;-63
2023/05/01 06:15:38;;;;;;;18.33;7.85;;;;;;;;;;5031469;28;20025;-64
2023/05/01 06:18:03;;;;;;;16.50;7.22;;;;;;;;;;5031748;28;20022;-64
2023/05/01 06:20:29;;;;;;;17.65;7.95;;;;;;;;;;5031710;28;20095;-63
2023/05/01 06:22:54;;;;;;;16.52;7.45;;;;;;;;;;5030999;28;20024;-64
2023/05/01 06:25:19;;;;;;;17.48;7.65;;;;;;;;;;5031250;28;20100;-61
2023/05/01 06:27:45;;;;;;;17.13;6.93;;;;;;;;;;5031806;28;20372;-64
2023/05/01 06:30:10;;;;;;;14.90;7.88;;;;;;;;;;5031552;28;20053;-64
2023/05/01 06:32:35;;;;;;;18.08;7.40;;;;;;;;;;5032058;28;20025;-62
2023/05/01 06:35:01;;;;;;;18.08;6.72;;;;;;;;;;5029912;28;20474;-62
2023/05/01 06:37:26;;;;;;;16.77;7.00;;;;;;;;;;5031014;28;20014;-64
2023/05/01 06:39:51;;;;;;;16.33;7.85;;;;;;;;;;5030779;28;20017;-63
2023/05/01 06:42:16;;;;;;;15.25;7.13;;;;;;;;;;5031504;28;20128;-65
2023/05/01 06:44:42;;;;;;;15.60;7.35;;;;;;;;;;5030815;28;20537;-66
2023/05/01 06:47:07;;;;;;;15.80;6.50;;;;;;;;;;5025421;28;20144;-65
2023/05/01 06:49:32;;;;;;;15.55;6.82;;;;;;;;;;5024767;28;20471;-65
2023/05/01 06:51:58;;;;;;;16.90;7.40;;;;;;;;;;5031294;28;20395;-62
2023/05/01 06:54:23;;;;;;;15.63;6.88;;;;;;;;;;5030372;28;20033;-64
2023/05/01 06:56:48;;;;;;;24.27;8.15;;;;;;;;;;5028107;28;20403;-64
2023/05/01 06:59:14;;;;;;;16.48;7.68;;;;;;;;;;5019212;28;20093;-65
2023/05/01 07:01:39;;;;;;;15.75;7.45;;;;;;;;;;5029595;28;20017;-64
2023/05/01 07:04:04;;;;;;;15.02;7.65;;;;;;;;;;5030395;28;20037;-65
2023/05/01 07:06:31;;;;;;;18.98;8.43;;;;;;;;;;5016237;28;20032;-64
2023/05/01 07:08:56;;;;;;;18.27;8.13;;;;;;;;;;5021929;28;20120;-65
2023/05/01 07:11:21;;;;;;;13.98;8.02;;;;;;;;;;5029546;28;20100;-64
2023/05/01 07:13:47;;;;;;;22.65;8.82;;;;;;;;;;5030573;28;20026;-62
2023/05/01 07:16:12;;;;;;;24.38;10.52;;;;;;;;;;5031270;28;20013;-64
2023/05/01 07:18:38;;;;;;;23.13;11.93;;;;;;;;;;5030840;28;20041;-64
2023/05/01 07:21:03;;;;;;;27.92;12.43;;;;;;;;;;5030989;28;20022;-62
2023/05/01 07:23:29;;;;;;;30.67;11.95;;;;;;;;;;5029745;28;20032;-61
2023/05/01 07:25:54;;;;;;;24.23;11.27;;;;;;;;;;5030058;28;20652;-63
2023/05/01 07:28:20;;;;;;;22.80;12.40;;;;;;;;;;5030710;28;20517;-64
2023/05/01 07:30:45;;;;;;;27.10;11.30;;;;;;;;;;5030257;28;20463;-63
2023/05/01 07:33:11;;;;;;;21.70;11.45;;;;;;;;;;5030220;28;20379;-65
2023/05/01 07:35:36;;;;;;;26.90;12.18;;;;;;;;;;5030280;28;20126;-60
2023/05/01 07:38:01;;;;;;;25.92;11.85;;;;;;;;;;5030528;28;20378;-64
2023/05/01 07:40:26;;;;;;;28.73;13.43;;;;;;;;;;5030212;28;20025;-61
2023/05/01 07:42:52;;;;;;;29.70;13.68;;;;;;;;;;5030261;28;20022;-65
2023/05/01 07:45:17;;;;;;;27.75;12.65;;;;;;;;;;5029460;28;20032;-64
2023/05/01 07:47:42;;;;;;;27.42;13.48;;;;;;;;;;5019683;28;20027;-64
2023/05/01 07:50:10;;;;;;;20.80;11.82;;;;;;;;;;5028782;28;20036;-64
2023/05/01 07:52:36;;;;;;;30.05;12.98;;;;;;;;;;5030422;28;20022;-61
2023/05/01 07:55:01;;;;;;;31.45;12.57;;;;;;;;;;5029356;28;20600;-65
2023/05/01 07:57:27;;;;;;;29.92;13.85;;;;;;;;;;5021817;28;20037;-63
2023/05/01 07:59:53;;;;;;;26.50;13.68;;;;;;;;;;5023969;28;20020;-63
2023/05/01 08:02:19;;;;;;;30.98;13.68;;;;;;;;;;5030406;28;20373;-64
2023/05/01 08:04:46;;;;;;;30.67;13.70;;;;;;;;;;5029557;28;20060;-63
2023/05/01 08:07:12;;;;;;;31.10;13.75;;;;;;;;;;5029870;28;20597;-63
2023/05/01 08:09:37;;;;;;;25.40;12.80;;;;;;;;;;5026323;28;20029;-65
2023/05/01 08:12:02;;;;;;;23.73;13.10;;;;;;;;;;5029847;28;20035;-64
2023/05/01 08:14:28;;;;;;;28.95;13.73;;;;;;;;;;5029362;28;20025;-58
2023/05/01 08:16:54;;;;;;;24.40;12.50;;;;;;;;;;5029959;28;20093;-63
2023/05/01 08:19:19;;;;;;;30.05;13.35;;;;;;;;;;5028405;28;20110;-63
2023/05/01 08:21:44;;;;;;;30.27;13.35;;;;;;;;;;5029765;28;20103;-64
2023/05/01 08:24:10;;;;;;;26.58;11.70;;;;;;;;;;5030471;28;20463;-64
2023/05/01 08:26:35;;;;;;;25.48;11.38;;;;;;;;;;5031261;28;20028;-64
2023/05/01 08:29:00;;;;;;;24.83;11.88;;;;;;;;;;5031573;28;20025;-62
2023/05/01 08:31:25;;;;;;;26.80;11.55;;;;;;;;;;5030779;28;20495;-63
2023/05/01 08:33:51;;;;;;;21.75;10.85;;;;;;;;;;5029587;28;20593;-64
2023/05/01 08:36:16;;;;;;;21.85;11.40;;;;;;;;;;5029344;28;20020;-63
2023/05/01 08:38:41;;;;;;;22.98;11.25;;;;;;;;;;5029032;28;20028;-64
2023/05/01 08:41:07;;;;;;;28.73;11.85;;;;;;;;;;5028389;28;20049;-60
2023/05/01 08:43:32;;;;;;;29.27;11.75;;;;;;;;;;5029495;28;20070;-64
2023/05/01 08:45:59;;;;;;;21.02;11.02;;;;;;;;;;5029719;28;20433;-64
2023/05/01 08:48:26;;;;;;;23.98;10.98;;;;;;;;;;5017375;28;20071;-64
2023/05/01 08:50:53;;;;;;;28.17;11.20;;;;;;;;;;5020795;28;20028;-63
2023/05/01 08:53:19;;;;;;;27.48;12.95;;;;;;;;;;5029028;28;20652;-64
2023/05/01 08:55:47;;;;;;;27.60;11.85;;;;;;;;;;5026319;28;20033;-62
2023/05/01 08:58:13;;;;;;;22.58;11.48;;;;;;;;;;5019037;28;20014;-62
2023/05/01 09:00:38;;;;;;;27.45;11.90;;;;;;;;;;5026857;28;20033;-64
2023/05/01 09:03:04;;;;;;;29.15;13.48;;;;;;;;;;5033064;28;20072;-62
2023/05/01 09:05:30;;;;;;;21.95;11.55;;;;;;;;;;5030781;28;20033;-64
2023/05/01 09:07:57;;;;;;;22.13;12.15;;;;;;;;;;5032923;28;20022;-64
2023/05/01 09:10:23;;;;;;;22.65;11.13;;;;;;;;;;5027202;28;20035;-65
2023/05/01 09:12:53;;;;;;;22.08;10.50;;;;;;;;;;5032699;28;20025;-64
2023/05/01 09:15:18;;;;;;;24.73;11.38;;;;;;;;;;5032407;28;20025;-65
2023/05/01 09:17:44;;;;;;;26.30;11.35;;;;;;;;;;5032719;28;20144;-64
2023/05/01 09:20:09;;;;;;;18.75;9.35;;;;;;;;;;5031884;28;20489;-65
2023/05/01 09:22:35;;;;;;;22.67;11.45;;;;;;;;;;5032674;28;20025;-63
2023/05/01 09:25:01;;;;;;;22.98;10.00;;;;;;;;;;5032250;28;20148;-65
2023/05/01 09:27:26;;;;;;;15.75;8.18;;;;;;;;;;5033147;28;20025;-62
2023/05/01 09:29:51;;;;;;;19.98;8.77;;;;;;;;;;5033479;28;20127;-64
2023/05/01 09:32:21;;;;;;;20.58;8.68;;;;;;;;;;5033014;28;20493;-62
2023/05/01 09:34:47;;;;;;;16.17;8.13;;;;;;;;;;5032768;28;20021;-63
2023/05/01 09:37:22;;;;;;;18.65;9.18;;;;;;;;;;5032881;28;20028;-64
2023/05/01 09:39:48;;;;;;;20.13;9.30;;;;;;;;;;5032859;28;20116;-61
2023/05/01 09:42:22;;;;;;;20.25;9.43;;;;;;;;;;5032789;28;20105;-65
2023/05/01 09:44:47;;;;;;;23.42;8.73;;;;;;;;;;5032058;28;20041;-65
2023/05/01 09:47:21;;;;;;;19.55;9.13;;;;;;;;;;5025554;28;20061;-64
2023/05/01 09:49:47;;;;;;;21.13;9.73;;;;;;;;;;5030720;28;20112;-64
2023/05/01 09:52:13;;;;;;;16.55;8.73;;;;;;;;;;5047519;28;20025;-62
2023/05/01 09:54:38;;;;;;;28.23;9.15;;;;;;;;;;5030947;28;20092;-63
2023/05/01 09:57:03;;;;;;;18.92;8.73;;;;;;;;;;5026306;28;20010;-64
2023/05/01 09:59:33;;;;;;;20.50;8.90;;;;;;;;;;5021379;28;20563;-64
2023/05/01 10:01:58;;;;;;;15.35;8.20;;;;;;;;;;5031480;28;20021;-63
2023/05/01 10:04:33;;;;;;;18.77;9.02;;;;;;;;;;5030418;28;20406;-64
2023/05/01 10:07:14;;;;;;;22.25;10.38;;;;;;;;;;5031175;28;20021;-64
2023/05/01 10:09:41;;;;;;;17.83;8.05;;;;;;;;;;5021515;28;20029;-65
2023/05/01 10:12:06;;;;;;;17.15;7.55;;;;;;;;;;5032254;28;20032;-63
2023/05/01 10:14:37;;;;;;;16.90;7.18;;;;;;;;;;5032007;28;20116;-64
2023/05/01 10:17:15;;;;;;;14.10;7.57;;;;;;;;;;5030353;28;20067;-65
2023/05/01 10:19:41;;;;;;;17.83;7.40;;;;;;;;;;5032079;28;20063;-64
2023/05/01 10:22:06;;;;;;;18.83;7.93;;;;;;;;;;5031105;28;20026;-63
2023/05/01 10:24:32;;;;;;;16.70;7.97;;;;;;;;;;5030793;28;20021;-63
2023/05/01 10:26:58;;;;;;;15.27;6.97;;;;;;;;;;5032046;28;20025;-64
2023/05/01 10:29:26;;;;;;;16.73;7.78;;;;;;;;;;5031346;28;20018;-64
2023/05/01 10:31:51;;;;;;;15.60;7.32;;;;;;;;;;5031206;28;20025;-63
2023/05/01 10:34:20;;;;;;;24.40;7.75;;;;;;;;;;5030989;28;20479;-62
2023/05/01 10:36:49;;;;;;;32.15;7.95;;;;;;;;;;5029800;28;20025;-62
2023/05/01 10:39:33;;;;;;;12.40;6.13;;;;;;;;;;5046518;28;20021;-64
2023/05/01 10:42:04;;;;;;;16.30;5.97;;;;;;;;;;5031497;28;20510;-61
2023/05/01 10:44:30;;;;;;;13.23;6.72;;;;;;;;;;5031324;28;20544;-65
2023/05/01 10:46:56;;;;;;;14.18;5.80;;;;;;;;;;5027396;28;20026;-64
2023/05/01 10:49:21;;;;;;;16.23;6.60;;;;;;;;;;5023464;28;20010;-63
2023/05/01 10:51:56;;;;;;;14.70;6.05;;;;;;;;;;5031366;28;20025;-61
2023/05/01 10:54:22;;;;;;;18.40;6.55;;;;;;;;;;5030949;28;20441;-64
2023/05/01 10:56:47;;;;;;;15.80;6.32;;;;;;;;;;5027499;28;20020;-60
2023/05/01 10:59:13;;;;;;;12.27;4.40;;;;;;;;;;5018178;28;20188;-64
2023/05/01 11:01:38;;;;;;;14.03;4.60;;;;;;;;;;5030196;28;20483;-63
2023/05/01 11:04:07;;;;;;;13.55;4.95;;;;;;;;;;5029575;28;20305;-64
2023/05/01 11:06:32;;;;;;;12.73;4.50;;;;;;;;;;5030345;28;20025;-68
2023/05/01 11:08:58;;;;;;;12.57;5.00;;;;;;;;;;5022142;28;20120;-63
2023/05/01 11:11:23;;;;;;;11.48;4.80;;;;;;;;;;5030526;28;20021;-65
2023/05/01 11:14:04;;;;;;;12.52;5.10;;;;;;;;;;5030609;28;20025;-65
2023/05/01 11:16:40;;;;;;;12.73;4.40;;;;;;;;;;5031055;28;20013;-62
2023/05/01 11:19:06;;;;;;;11.93;3.70;;;;;;;;;;5029227;28;20059;-65
2023/05/01 11:21:32;;;;;;;13.23;4.03;;;;;;;;;;5030156;28;20482;-64
2023/05/01 11:24:04;;;;;;;11.73;3.72;;;;;;;;;;5029748;28;20029;-64
2023/05/01 11:26:30;;;;;;;9.77;4.07;;;;;;;;;;5030189;28;20088;-65
2023/05/01 11:28:59;;;;;;;9.27;3.63;;;;;;;;;;5030316;28;20034;-65
2023/05/01 11:31:25;;;;;;;7.68;3.30;;;;;;;;;;5030180;28;20356;-62
2023/05/01 11:33:51;;;;;;;6.00;2.25;;;;;;;;;;5029693;28;20022;-65
2023/05/01 11:36:16;;;;;;;7.28;3.33;;;;;;;;;;5030096;28;20079;-66
2023/05/01 11:38:51;;;;;;;10.77;3.13;;;;;;;;;;5030407;28;20022;-66
2023/05/01 11:41:22;;;;;;;9.02;3.15;;;;;;;;;;5029635;28;20025;-65
2023/05/01 11:43:55;;;;;;;12.65;3.60;;;;;;;;;;5029813;28;20148;-64
2023/05/01 11:46:30;;;;;;;10.50;3.45;;;;;;;;;;5030135;28;20100;-65
2023/05/01 11:48:56;;;;;;;8.70;3.10;;;;;;;;;;5029961;28;20053;-61
2023/05/01 11:51:23;;;;;;;9.70;3.30;;;;;;;;;;5029982;28;20032;-64
2023/05/01 11:54:01;;;;;;;10.25;3.70;;;;;;;;;;5029482;28;20032;-64
2023/05/01 11:56:26;;;;;;;10.65;3.92;;;;;;;;;;5027915;28;20041;-64
2023/05/01 11:58:56;;;;;;;9.40;4.07;;;;;;;;;;5017634;28;20048;-66
2023/05/01 12:01:31;;;;;;;7.25;3.78;;;;;;;;;;5027609;28;20402;-66
2023/05/01 12:03:57;;;;;;;8.80;3.40;;;;;;;;;;5041436;22;20049;-70
2023/05/01 12:06:34;;;;;;;13.27;4.18;;;;;;;;;;5013100;28;20014;-69
2023/05/01 12:09:00;;;;;;;10.27;4.18;;;;;;;;;;5005709;28;20078;-72
2023/05/01 12:11:26;;;;;;;9.25;4.00;;;;;;;;;;5007063;28;20116;-70
2023/05/01 12:13:51;;;;;;;9.65;3.97;;;;;;;;;;5006279;28;20109;-69
2023/05/01 12:16:17;;;;;;;10.85;3.95;;;;;;;;;;5001055;28;20082;-70
2023/05/01 12:18:42;;;;;;;9.32;4.30;;;;;;;;;;5005369;28;20041;-69
2023/05/01 12:21:13;;;;;;;13.90;3.83;;;;;;;;;;5010002;28;20071;-71
2023/05/01 12:23:39;;;;;;;12.80;4.13;;;;;;;;;;5025629;28;20013;-72
2023/05/01 12:26:17;;;;;;;7.53;3.60;;;;;;;;;;5027089;28;20090;-67
2023/05/01 12:28:55;;;;;;;9.10;3.45;;;;;;;;;;5017934;28;20026;-69
2023/05/01 12:31:21;;;;;;;6.55;3.65;;;;;;;;;;5000522;28;20492;-69
2023/05/01 12:34:05;;;;;;;9.20;4.32;;;;;;;;;;5010885;28;20030;-71
2023/05/01 12:36:32;;;;;;;9.70;3.92;;;;;;;;;;5007029;28;20108;-69
2023/05/01 12:39:07;;;;;;;9.63;3.67;;;;;;;;;;5016469;28;20060;-69
2023/05/01 12:41:36;;;;;;;8.18;3.78;;;;;;;;;;5003983;28;20092;-72
2023/05/01 12:44:01;;;;;;;10.98;3.78;;;;;;;;;;5014194;28;20021;-68
2023/05/01 12:46:27;;;;;;;9.68;4.07;;;;;;;;;;5022127;28;20076;-70
2023/05/01 12:48:52;;;;;;;12.20;4.30;;;;;;;;;;5009868;28;20030;-69
2023/05/01 12:51:18;;;;;;;8.45;3.95;;;;;;;;;;5011142;28;20025;-67
2023/05/01 12:53:44;;;;;;;7.78;3.88;;;;;;;;;;4997836;28;20033;-69
2023/05/01 12:56:21;;;;;;;11.60;3.28;;;;;;;;;;5013088;28;20025;-70
2023/05/01 12:58:47;;;;;;;11.98;3.72;;;;;;;;;;5010830;28;20026;-72
2023/05/01 13:01:12;;;;;;;8.93;3.95;;;;;;;;;;5004949;28;20018;-71
2023/05/01 13:03:41;;;;;;;10.82;4.43;;;;;;;;;;5003523;28;20026;-70
2023/05/01 13:06:07;;;;;;;14.18;4.82;;;;;;;;;;5022207;28;20065;-67
2023/05/01 13:08:35;;;;;;;8.80;4.28;;;;;;;;;;5005125;28;20106;-70
2023/05/01 13:11:08;;;;;;;11.85;3.78;;;;;;;;;;5023141;28;20033;-70
2023/05/01 13:13:34;;;;;;;12.30;4.20;;;;;;;;;;5011519;28;20147;-69
2023/05/01 13:16:15;;;;;;;9.07;3.67;;;;;;;;;;5012939;28;20042;-70
2023/05/01 13:18:47;;;;;;;12.90;4.13;;;;;;;;;;5007505;28;20423;-71
2023/05/01 13:21:14;;;;;;;8.55;4.07;;;;;;;;;;5012835;28;20018;-71
2023/05/01 13:23:41;;;;;;;12.93;5.22;;;;;;;;;;5011389;28;20610;-70
2023/05/01 13:26:07;;;;;;;9.52;4.03;;;;;;;;;;5011455;28;20030;-73
2023/05/01 13:28:37;;;;;;;10.93;4.18;;;;;;;;;;5017933;28;20033;-71
2023/05/01 13:31:09;;;;;;;11.50;5.05;;;;;;;;;;5018257;28;20022;-70
2023/05/01 13:33:35;;;;;;;8.13;3.95;;;;;;;;;;5004493;28;20383;-72
2023/05/01 13:36:01;;;;;;;11.02;4.32;;;;;;;;;;5016211;28;20010;-64
2023/05/01 13:38:26;;;;;;;12.73;4.68;;;;;;;;;;5022271;28;20017;-68
2023/05/01 13:40:51;;;;;;;9.23;4.60;;;;;;;;;;5015264;28;20368;-68
2023/05/01 13:43:16;;;;;;;14.77;5.05;;;;;;;;;;5001959;28;20049;-68
2023/05/01 13:45:42;;;;;;;10.05;4.53;;;;;;;;;;5008982;28;20032;-72
2023/05/01 13:48:07;;;;;;;11.43;4.32;;;;;;;;;;5002943;28;20057;-70
2023/05/01 13:50:33;;;;;;;10.52;4.57;;;;;;;;;;5006468;28;20034;-69
2023/05/01 13:52:58;;;;;;;9.48;4.32;;;;;;;;;;5009684;28;20044;-67
2023/05/01 13:55:23;;;;;;;9.77;4.45;;;;;;;;;;5010896;28;20124;-69
2023/05/01 13:57:48;;;;;;;9.73;4.38;;;;;;;;;;5005074;28;20029;-70
2023/05/01 14:00:17;;;;;;;8.48;4.53;;;;;;;;;;5011468;28;20045;-66
2023/05/01 14:02:44;;;;;;;11.65;4.85;;;;;;;;;;5016278;28;20160;-70
2023/05/01 14:05:09;;;;;;;9.07;4.40;;;;;;;;;;5010119;28;20022;-72
2023/05/01 14:07:38;;;;;;;11.30;4.45;;;;;;;;;;5013855;28;20142;-69
2023/05/01 14:10:06;;;;;;;11.50;4.63;;;;;;;;;;5009087;28;20026;-67
2023/05/01 14:12:31;;;;;;;8.70;4.15;;;;;;;;;;5008809;28;20025;-69
2023/05/01 14:14:58;;;;;;;10.80;4.63;;;;;;;;;;5007323;28;20447;-70
2023/05/01 14:17:30;;;;;;;10.82;4.18;;;;;;;;;;5009321;28;20010;-70
2023/05/01 14:19:55;;;;;;;11.63;4.03;;;;;;;;;;5005291;28;20098;-67
2023/05/01 14:22:21;;;;;;;7.55;4.18;;;;;;;;;;5010133;28;20100;-69
2023/05/01 14:24:46;;;;;;;10.30;5.05;;;;;;;;;;5009300;28;20041;-68
2023/05/01 14:27:12;;;;;;;13.93;4.57;;;;;;;;;;5010203;28;20069;-67